Time;durP1;ratioP1;P1;durP2;ratioP2;P2;SDS_P1;SDS_P2;PMS_P1;PMS_P2;Temp;Humidity;BMP_temperature;BMP_pressure;BME280_temperature;BME280_humidity;BME280_pressure;Samples;Min_cycle;Max_cycle;Signal;HPM_P1;HPM_P2
2023/07/12 00:02:41;;;;;;;;;;;;;;;19.32;100.00;95684.91;10490231;28;2208;-70
2023/07/12 00:07:45;;;;;;;;;;;;;;;19.32;100.00;95698.53;10460078;28;1998;-70
2023/07/12 00:12:53;;;;;;;;;;;;;;;19.37;100.00;95698.34;10446924;28;2073;-71
2023/07/12 00:17:56;;;;;;;;;;;;;;;19.59;100.00;95699.97;10461845;28;2115;-69
2023/07/12 00:23:00;;;;;;;;;;;;;;;19.58;100.00;95698.38;10463227;28;2006;-69
2023/07/12 00:28:07;;;;;;;;;;;;;;;20.17;100.00;95703.66;10464875;28;2282;-69
2023/07/12 00:33:17;;;;;;;;;;;;;;;19.99;100.00;95746.66;10464730;28;1978;-70
2023/07/12 00:38:20;;;;;;;;;;;;;;;19.77;100.00;95723.25;10460752;28;2137;-70
2023/07/12 00:43:24;;;;;;;;;;;;;;;19.80;100.00;95711.69;10462546;28;1962;-70
2023/07/12 00:48:32;;;;;;;;;;;;;;;20.02;100.00;95693.34;10463150;28;2027;-69
2023/07/12 00:53:36;;;;;;;;;;;;;;;19.64;100.00;95656.16;10461500;28;2081;-70
2023/07/12 00:58:40;;;;;;;;;;;;;;;19.37;100.00;95654.75;10459842;28;2213;-69
2023/07/12 01:03:44;;;;;;;;;;;;;;;19.50;100.00;95671.97;10440345;28;2054;-70
2023/07/12 01:08:52;;;;;;;;;;;;;;;20.61;100.00;95671.22;10461006;28;2097;-70
2023/07/12 01:13:58;;;;;;;;;;;;;;;20.18;100.00;95697.84;10461712;28;2240;-70
2023/07/12 01:19:00;;;;;;;;;;;;;;;20.75;100.00;95713.47;10467399;28;1946;-69
2023/07/12 01:24:06;;;;;;;;;;;;;;;20.85;100.00;95695.81;10471381;28;2015;-69
2023/07/12 01:29:11;;;;;;;;;;;;;;;20.43;100.00;95689.72;10469536;28;2091;-70
2023/07/12 01:34:15;;;;;;;;;;;;;;;20.22;100.00;95673.41;10468549;28;2067;-70
2023/07/12 01:39:22;;;;;;;;;;;;;;;19.65;100.00;95627.75;10466586;28;2146;-70
2023/07/12 01:44:29;;;;;;;;;;;;;;;19.47;100.00;95612.63;10470963;28;4532;-70
2023/07/12 01:49:34;;;;;;;;;;;;;;;20.37;100.00;95560.84;10468580;28;2072;-70
2023/07/12 01:54:44;;;;;;;;;;;;;;;20.40;100.00;95586.66;10469228;28;2165;-70
2023/07/12 01:59:51;;;;;;;;;;;;;;;20.34;100.00;95566.16;10469816;28;2262;-70
2023/07/12 02:04:55;;;;;;;;;;;;;;;20.64;100.00;95555.84;10467373;28;2094;-70
2023/07/12 02:10:03;;;;;;;;;;;;;;;20.63;100.00;95557.00;10481722;28;1990;-70
2023/07/12 02:15:06;;;;;;;;;;;;;;;20.82;100.00;95568.13;10464552;28;2053;-70
2023/07/12 02:20:13;;;;;;;;;;;;;;;20.47;100.00;95575.97;10470067;28;2039;-69
2023/07/12 02:25:18;;;;;;;;;;;;;;;20.64;100.00;95531.25;10465715;28;2041;-69
2023/07/12 02:30:21;;;;;;;;;;;;;;;20.49;100.00;95492.59;10468800;28;2422;-69
2023/07/12 02:35:27;;;;;;;;;;;;;;;20.47;100.00;95472.22;10463771;28;2094;-70
2023/07/12 02:40:31;;;;;;;;;;;;;;;20.50;100.00;95428.66;10469400;28;4532;-69
2023/07/12 02:45:37;;;;;;;;;;;;;;;20.44;100.00;95454.59;10467987;28;1982;-68
2023/07/12 02:50:40;;;;;;;;;;;;;;;20.51;100.00;95440.38;10465524;28;2245;-70
2023/07/12 02:55:47;;;;;;;;;;;;;;;20.62;100.00;95436.03;10467230;28;2011;-73
2023/07/12 03:00:50;;;;;;;;;;;;;;;20.52;100.00;95448.22;10464965;28;2377;-75
2023/07/12 03:05:56;;;;;;;;;;;;;;;20.66;100.00;95426.00;10465599;28;2140;-68
2023/07/12 03:11:01;;;;;;;;;;;;;;;20.60;100.00;95421.13;10463420;28;2080;-68
2023/07/12 03:16:05;;;;;;;;;;;;;;;20.67;100.00;95410.41;10496385;28;1975;-67
2023/07/12 03:21:13;;;;;;;;;;;;;;;20.49;100.00;95402.50;10463404;28;2056;-69
2023/07/12 03:26:25;;;;;;;;;;;;;;;20.66;100.00;95381.50;10472462;28;2397;-68
2023/07/12 03:31:28;;;;;;;;;;;;;;;20.45;100.00;95366.13;10478032;28;2240;-69
2023/07/12 03:41:50;;;;;;;;;;;;;;;20.37;100.00;95353.38;10473516;28;4493;-66
2023/07/12 03:46:53;;;;;;;;;;;;;;;20.10;100.00;95340.47;10472048;28;2164;-66
2023/07/12 03:51:57;;;;;;;;;;;;;;;20.29;100.00;95343.38;10479389;28;2151;-66
2023/07/12 03:57:03;;;;;;;;;;;;;;;20.18;100.00;95336.81;10478023;28;2111;-66
2023/07/12 04:02:07;;;;;;;;;;;;;;;20.23;100.00;95325.66;10473192;28;2020;-66
2023/07/12 04:07:10;;;;;;;;;;;;;;;20.24;100.00;95346.38;10478037;28;2012;-65
2023/07/12 04:12:13;;;;;;;;;;;;;;;20.60;100.00;95350.91;10477168;28;2029;-66
2023/07/12 04:17:16;;;;;;;;;;;;;;;20.51;100.00;95355.75;10476431;28;2070;-65
2023/07/12 04:22:19;;;;;;;;;;;;;;;20.61;100.00;95346.25;10480548;28;1983;-65
2023/07/12 04:27:24;;;;;;;;;;;;;;;20.64;100.00;95342.84;10476284;28;2206;-65
2023/07/12 04:32:27;;;;;;;;;;;;;;;20.84;100.00;95341.81;10469097;28;1907;-64
2023/07/12 04:37:31;;;;;;;;;;;;;;;20.92;100.00;95340.06;10478854;28;1923;-64
2023/07/12 04:42:35;;;;;;;;;;;;;;;20.88;100.00;95340.00;10452959;28;4772;-65
2023/07/12 04:47:38;;;;;;;;;;;;;;;21.01;100.00;95344.25;10480745;28;2608;-65
2023/07/12 04:52:43;;;;;;;;;;;;;;;21.04;100.00;95332.59;10486954;28;1991;-66
2023/07/12 04:57:46;;;;;;;;;;;;;;;21.12;100.00;95328.13;10480311;28;2064;-65
2023/07/12 05:02:50;;;;;;;;;;;;;;;21.21;100.00;95336.94;10480886;28;1966;-66
2023/07/12 05:08:04;;;;;;;;;;;;;;;21.40;100.00;95327.28;10478919;28;2202;-66
2023/07/12 05:13:07;;;;;;;;;;;;;;;21.85;100.00;95327.56;10481186;28;1959;-67
2023/07/12 05:18:10;;;;;;;;;;;;;;;22.06;100.00;95332.72;10480355;28;2030;-67
2023/07/12 05:23:14;;;;;;;;;;;;;;;22.29;100.00;95316.44;10479671;28;1928;-67
2023/07/12 05:28:18;;;;;;;;;;;;;;;22.70;100.00;95299.59;10486443;28;1948;-67
2023/07/12 05:33:23;;;;;;;;;;;;;;;22.81;100.00;95300.59;10465272;28;2019;-67
2023/07/12 05:38:27;;;;;;;;;;;;;;;23.07;100.00;95308.94;10479335;28;3252;-67
2023/07/12 05:43:30;;;;;;;;;;;;;;;23.12;100.00;95322.34;10481531;28;4532;-70
2023/07/12 05:48:35;;;;;;;;;;;;;;;22.69;100.00;95331.69;10475983;28;2589;-72
2023/07/12 05:53:39;;;;;;;;;;;;;;;22.56;100.00;95344.75;10480737;28;2555;-70
2023/07/12 05:58:43;;;;;;;;;;;;;;;22.65;100.00;95358.25;10484440;28;1879;-72
2023/07/12 06:03:47;;;;;;;;;;;;;;;22.56;100.00;95369.41;10459323;28;1991;-69
2023/07/12 06:08:55;;;;;;;;;;;;;;;22.52;100.00;95387.72;10490752;28;1931;-70
2023/07/12 06:14:01;;;;;;;;;;;;;;;22.52;100.00;95409.63;10482634;28;2563;-70
2023/07/12 06:19:13;;;;;;;;;;;;;;;22.25;100.00;95410.56;10482066;28;2021;-70
2023/07/12 06:24:19;;;;;;;;;;;;;;;22.11;100.00;95444.69;10484028;28;1887;-71
2023/07/12 06:29:22;;;;;;;;;;;;;;;22.20;100.00;95446.44;10479933;28;1961;-71
2023/07/12 06:34:27;;;;;;;;;;;;;;;22.07;100.00;95475.81;10485288;28;1875;-72
2023/07/12 06:39:39;;;;;;;;;;;;;;;21.87;100.00;95464.00;10481712;28;2695;-73
2023/07/12 06:44:49;;;;;;;;;;;;;;;21.32;100.00;95435.66;10477247;28;2682;-75
2023/07/12 06:49:59;;;;;;;;;;;;;;;20.80;100.00;95474.78;10483209;28;1985;-76
2023/07/12 06:55:02;;;;;;;;;;;;;;;20.59;100.00;95485.06;10489158;28;1956;-77
2023/07/12 07:00:09;;;;;;;;;;;;;;;20.47;100.00;95453.91;10482938;28;1963;-76
2023/07/12 07:05:24;;;;;;;;;;;;;;;20.20;100.00;95479.19;10479039;28;1955;-77
2023/07/12 07:10:34;;;;;;;;;;;;;;;19.78;100.00;95538.59;10480955;28;1910;-76
2023/07/12 07:15:45;;;;;;;;;;;;;;;19.78;100.00;95569.38;10479535;28;2097;-75
2023/07/12 07:20:50;;;;;;;;;;;;;;;19.94;100.00;95529.41;10480293;28;1944;-75
2023/07/12 07:31:44;;;;;;;;;;;;;;;20.56;100.00;95524.78;10476338;28;2407;-82
2023/07/12 07:36:52;;;;;;;;;;;;;;;20.77;100.00;95513.72;10486324;28;1960;-86
2023/07/12 07:47:43;;;;;;;;;;;;;;;21.11;100.00;95501.41;10521385;28;1932;-86
2023/07/12 07:52:57;;;;;;;;;;;;;;;21.35;100.00;95495.09;10572853;27;1943;-86
2023/07/12 07:58:03;;;;;;;;;;;;;;;21.83;100.00;95494.03;10554604;27;1888;-78
2023/07/12 08:03:21;;;;;;;;;;;;;;;22.29;100.00;95488.13;10562680;27;1908;-81
2023/07/12 08:08:24;;;;;;;;;;;;;;;23.00;100.00;95478.75;10564536;27;1968;-77
2023/07/12 08:18:49;;;;;;;;;;;;;;;23.76;100.00;95470.03;10551762;28;1937;-82
2023/07/12 08:23:55;;;;;;;;;;;;;;;24.35;100.00;95472.22;10568040;27;1942;-80
2023/07/12 08:29:12;;;;;;;;;;;;;;;24.72;100.00;95458.63;10549746;28;2402;-81
2023/07/12 08:34:16;;;;;;;;;;;;;;;25.15;100.00;95453.69;10546722;28;2053;-80
2023/07/12 08:39:28;;;;;;;;;;;;;;;25.38;100.00;95453.53;10529948;28;1989;-80
2023/07/12 08:44:40;;;;;;;;;;;;;;;26.12;100.00;95459.00;10561979;28;4789;-83
2023/07/12 08:55:10;;;;;;;;;;;;;;;26.16;100.00;95456.28;10542195;28;1957;-75
2023/07/12 09:05:36;;;;;;;;;;;;;;;26.02;100.00;95442.38;10562311;28;1907;-81
2023/07/12 09:10:42;;;;;;;;;;;;;;;26.29;100.00;95443.78;10578756;28;2017;-79
2023/07/12 09:15:52;;;;;;;;;;;;;;;26.40;100.00;95444.69;10561780;28;1981;-81
2023/07/12 09:21:13;;;;;;;;;;;;;;;26.67;100.00;95428.72;10532063;28;1914;-79
2023/07/12 09:26:24;;;;;;;;;;;;;;;26.51;100.00;95436.47;10561544;28;2039;-80
2023/07/12 09:31:38;;;;;;;;;;;;;;;26.85;100.00;95428.03;10557554;28;1937;-74
2023/07/12 09:36:42;;;;;;;;;;;;;;;27.01;100.00;95419.41;10563624;27;1926;-77
2023/07/12 09:41:50;;;;;;;;;;;;;;;27.32;100.00;95423.50;10553385;27;1965;-79
2023/07/12 09:46:59;;;;;;;;;;;;;;;28.34;100.00;95419.28;10569336;27;2554;-82
2023/07/12 09:52:04;;;;;;;;;;;;;;;28.72;99.63;95417.63;10570016;28;2000;-79
2023/07/12 09:57:09;;;;;;;;;;;;;;;28.77;100.00;95419.97;10572740;27;1904;-81
2023/07/12 10:02:21;;;;;;;;;;;;;;;29.13;95.82;95428.16;10572251;27;1896;-80
2023/07/12 10:07:28;;;;;;;;;;;;;;;28.85;96.22;95426.28;10550081;28;1996;-79
2023/07/12 10:12:39;;;;;;;;;;;;;;;28.80;98.21;95426.69;10568583;28;1864;-80
2023/07/12 10:17:47;;;;;;;;;;;;;;;28.69;94.39;95431.44;10566616;28;1975;-78
2023/07/12 10:22:57;;;;;;;;;;;;;;;28.31;97.74;95427.53;10546003;27;2270;-77
2023/07/12 10:33:22;;;;;;;;;;;;;;;28.16;98.73;95429.53;10562862;27;2098;-78
2023/07/12 10:38:28;;;;;;;;;;;;;;;28.15;95.38;95437.03;10568330;27;1994;-79
2023/07/12 10:43:54;;;;;;;;;;;;;;;28.19;94.69;95437.03;10566490;27;4630;-78
2023/07/12 10:49:05;;;;;;;;;;;;;;;28.09;100.00;95432.28;10541839;27;2592;-76
2023/07/12 10:54:11;;;;;;;;;;;;;;;28.32;94.96;95443.00;10565683;27;1961;-77
2023/07/12 10:59:21;;;;;;;;;;;;;;;29.60;89.24;95451.69;10561004;27;1935;-76
2023/07/12 11:04:41;;;;;;;;;;;;;;;30.06;83.39;95442.28;10561523;28;2436;-77
2023/07/12 11:09:47;;;;;;;;;;;;;;;30.15;83.93;95447.38;10562302;27;1947;-77
2023/07/12 11:14:50;;;;;;;;;;;;;;;30.53;80.38;95423.28;10560819;28;1983;-75
2023/07/12 11:20:01;;;;;;;;;;;;;;;30.31;78.33;95428.25;10560913;27;2317;-77
2023/07/12 11:25:09;;;;;;;;;;;;;;;30.05;83.07;95428.84;10543814;28;2038;-79
2023/07/12 11:30:13;;;;;;;;;;;;;;;29.95;82.68;95422.16;10541442;28;1976;-80
2023/07/12 11:35:20;;;;;;;;;;;;;;;29.45;85.15;95424.44;10561857;28;1998;-77
2023/07/12 11:40:24;;;;;;;;;;;;;;;29.89;85.77;95419.03;10564291;27;4801;-78
2023/07/12 11:45:31;;;;;;;;;;;;;;;29.54;87.74;95403.47;10564693;28;2001;-78
2023/07/12 11:50:39;;;;;;;;;;;;;;;29.69;87.30;95420.00;10541582;27;1974;-79
2023/07/12 11:55:44;;;;;;;;;;;;;;;30.37;85.31;95434.13;10542314;28;1995;-78
2023/07/12 12:00:51;;;;;;;;;;;;;;;31.01;80.46;95419.63;10558054;27;1950;-78
2023/07/12 12:11:21;;;;;;;;;;;;;;;30.83;83.12;95399.63;10539729;28;1985;-78
2023/07/12 12:16:29;;;;;;;;;;;;;;;30.81;85.51;95368.72;10560033;27;2216;-82
2023/07/12 12:21:52;;;;;;;;;;;;;;;31.05;86.41;95387.06;10564341;28;1891;-79
2023/07/12 12:27:02;;;;;;;;;;;;;;;30.98;83.33;95356.59;10559937;28;1943;-78
2023/07/12 12:32:25;;;;;;;;;;;;;;;30.90;82.51;95353.13;10560115;28;1946;-74
2023/07/12 12:37:34;;;;;;;;;;;;;;;30.41;85.15;95348.91;10542516;28;1995;-75
2023/07/12 12:42:39;;;;;;;;;;;;;;;31.35;83.25;95360.50;10543622;28;4876;-74
2023/07/12 12:47:43;;;;;;;;;;;;;;;31.34;81.82;95348.63;10538890;28;1881;-75
2023/07/12 12:53:04;;;;;;;;;;;;;;;31.61;81.38;95345.81;10557783;28;1860;-80
2023/07/12 12:58:14;;;;;;;;;;;;;;;31.81;76.64;95353.50;10543334;28;1916;-80
2023/07/12 13:03:37;;;;;;;;;;;;;;;31.79;77.96;95361.47;10571670;27;1905;-78
2023/07/12 13:08:51;;;;;;;;;;;;;;;32.03;77.25;95356.72;10549734;28;1909;-78
2023/07/12 13:14:03;;;;;;;;;;;;;;;31.83;79.04;95356.66;10567562;27;1869;-82
2023/07/12 13:19:14;;;;;;;;;;;;;;;31.37;81.48;95341.47;10570354;27;1825;-79
2023/07/12 13:24:29;;;;;;;;;;;;;;;31.35;83.31;95349.41;10569998;28;1964;-81
2023/07/12 13:29:41;;;;;;;;;;;;;;;31.25;86.22;95361.47;10569149;28;1960;-82
2023/07/12 13:34:59;;;;;;;;;;;;;;;29.94;91.60;95375.47;10576431;27;1919;-82
2023/07/12 13:40:13;;;;;;;;;;;;;;;29.95;93.04;95394.47;10549092;27;4489;-79
2023/07/12 13:45:27;;;;;;;;;;;;;;;28.39;97.00;95418.09;10581625;27;1996;-84
2023/07/12 13:50:37;;;;;;;;;;;;;;;25.17;100.00;95445.06;10566254;28;1961;-77
2023/07/12 14:01:04;;;;;;;;;;;;;;;23.99;100.00;95437.91;10566826;28;1975;-80
2023/07/12 14:06:29;;;;;;;;;;;;;;;23.38;100.00;95439.56;10548474;28;2170;-80
2023/07/12 14:12:03;;;;;;;;;;;;;;;22.64;100.00;95467.00;10569757;27;1905;-79
2023/07/12 14:17:08;;;;;;;;;;;;;;;22.73;100.00;95512.59;10546278;27;1928;-74
2023/07/12 14:22:12;;;;;;;;;;;;;;;22.99;100.00;95501.84;10559145;27;2365;-75
2023/07/12 14:27:14;;;;;;;;;;;;;;;22.91;100.00;95509.13;10567132;27;1939;-67
2023/07/12 14:32:19;;;;;;;;;;;;;;;23.17;100.00;95515.94;10560619;27;2004;-67
2023/07/12 14:37:22;;;;;;;;;;;;;;;23.41;100.00;95521.13;10542531;28;1984;-69
2023/07/12 14:42:28;;;;;;;;;;;;;;;22.66;100.00;95521.47;10544100;27;4497;-67
2023/07/12 14:47:32;;;;;;;;;;;;;;;22.48;100.00;95521.03;10559714;27;2490;-68
2023/07/12 14:52:35;;;;;;;;;;;;;;;22.32;100.00;95481.94;10556651;28;1987;-75
2023/07/12 14:57:43;;;;;;;;;;;;;;;23.11;100.00;95454.31;10564514;28;1855;-75
2023/07/12 15:03:22;;;;;;;;;;;;;;;22.77;100.00;95491.53;10559420;28;2370;-75
2023/07/12 15:08:29;;;;;;;;;;;;;;;22.43;100.00;95493.94;10544863;27;1840;-75
2023/07/12 15:13:43;;;;;;;;;;;;;;;22.32;100.00;95487.41;10562705;27;1900;-73
2023/07/12 15:18:52;;;;;;;;;;;;;;;23.05;100.00;95481.22;10558276;28;1897;-75
2023/07/12 15:23:57;;;;;;;;;;;;;;;23.43;100.00;95471.38;10563840;27;1781;-77
2023/07/12 15:34:27;;;;;;;;;;;;;;;23.63;100.00;95494.91;10556150;28;1918;-77
2023/07/12 15:39:36;;;;;;;;;;;;;;;23.86;100.00;95502.38;10566771;27;2018;-77
2023/07/12 15:44:42;;;;;;;;;;;;;;;23.98;100.00;95504.91;10567485;27;4678;-77
2023/07/12 15:49:52;;;;;;;;;;;;;;;24.02;100.00;95518.72;10551261;28;2048;-78
2023/07/12 15:55:00;;;;;;;;;;;;;;;23.50;100.00;95528.34;10545481;28;1932;-73
2023/07/12 16:00:11;;;;;;;;;;;;;;;22.33;100.00;95527.31;10561214;27;1874;-77
2023/07/12 16:05:16;;;;;;;;;;;;;;;21.90;100.00;95520.78;10563813;28;1915;-74
2023/07/12 16:10:22;;;;;;;;;;;;;;;21.61;100.00;95491.09;10569253;28;1909;-73
2023/07/12 16:15:27;;;;;;;;;;;;;;;21.57;100.00;95478.13;10563195;28;2086;-73
2023/07/12 16:20:31;;;;;;;;;;;;;;;22.12;100.00;95478.34;10565278;27;1959;-74
2023/07/12 16:25:41;;;;;;;;;;;;;;;22.69;100.00;95463.19;10567407;28;1804;-75
2023/07/12 16:30:54;;;;;;;;;;;;;;;23.25;100.00;95456.53;10563929;27;1938;-75
2023/07/12 16:36:00;;;;;;;;;;;;;;;23.44;100.00;95453.75;10538361;28;1920;-75
2023/07/12 16:41:18;;;;;;;;;;;;;;;23.53;100.00;95442.56;10530295;28;4508;-75
2023/07/12 16:46:24;;;;;;;;;;;;;;;23.70;100.00;95420.16;10565305;28;1903;-75
2023/07/12 16:51:33;;;;;;;;;;;;;;;23.81;100.00;95412.09;10561729;28;1963;-75
2023/07/12 16:56:36;;;;;;;;;;;;;;;23.86;100.00;95420.03;10563754;28;2345;-75
2023/07/12 17:01:41;;;;;;;;;;;;;;;23.95;100.00;95412.34;10560165;28;1863;-76
2023/07/12 17:06:46;;;;;;;;;;;;;;;23.91;100.00;95427.94;10540890;28;1952;-76
2023/07/12 17:11:57;;;;;;;;;;;;;;;24.11;100.00;95418.47;10559045;28;1902;-76
2023/07/12 17:17:00;;;;;;;;;;;;;;;24.26;100.00;95406.53;10553621;28;1907;-70
2023/07/12 17:22:06;;;;;;;;;;;;;;;24.36;100.00;95398.84;10546201;28;1902;-69
2023/07/12 17:27:11;;;;;;;;;;;;;;;24.42;100.00;95394.59;10555440;28;1898;-68
2023/07/12 17:32:15;;;;;;;;;;;;;;;24.40;100.00;95392.25;10537873;28;1981;-70
2023/07/12 17:37:18;;;;;;;;;;;;;;;24.38;100.00;95363.56;10563724;28;1924;-71
2023/07/12 17:42:21;;;;;;;;;;;;;;;24.27;100.00;95357.88;10542376;28;4521;-69
2023/07/12 17:47:28;;;;;;;;;;;;;;;24.21;100.00;95351.13;10540960;28;2071;-71
2023/07/12 17:52:32;;;;;;;;;;;;;;;24.22;100.00;95372.72;10558519;28;2291;-70
2023/07/12 17:57:45;;;;;;;;;;;;;;;24.08;100.00;95377.22;10554841;28;1991;-73
2023/07/12 18:02:48;;;;;;;;;;;;;;;24.05;100.00;95369.72;10545941;27;1888;-71
2023/07/12 18:07:53;;;;;;;;;;;;;;;24.02;100.00;95352.03;10572845;27;2074;-72
2023/07/12 18:12:58;;;;;;;;;;;;;;;23.84;100.00;95367.44;10571106;27;1981;-72
2023/07/12 18:18:05;;;;;;;;;;;;;;;23.77;100.00;95381.06;10564902;27;1934;-72
2023/07/12 18:23:11;;;;;;;;;;;;;;;23.63;100.00;95395.34;10567457;27;1818;-71
2023/07/12 18:28:17;;;;;;;;;;;;;;;23.57;100.00;95392.06;10556915;27;1863;-74
2023/07/12 18:33:23;;;;;;;;;;;;;;;23.56;100.00;95401.47;10562587;27;1950;-78
2023/07/12 18:38:27;;;;;;;;;;;;;;;23.45;100.00;95406.75;10566845;27;1867;-73
2023/07/12 18:43:31;;;;;;;;;;;;;;;23.38;100.00;95395.66;10564390;27;1887;-72
2023/07/12 18:48:34;;;;;;;;;;;;;;;23.36;100.00;95406.22;10541095;27;2464;-73
2023/07/12 18:53:46;;;;;;;;;;;;;;;23.27;100.00;95402.13;10567087;27;1923;-74
2023/07/12 18:58:51;;;;;;;;;;;;;;;23.27;100.00;95400.16;10560078;27;1859;-74
2023/07/12 19:03:56;;;;;;;;;;;;;;;23.20;100.00;95389.84;10564119;27;2129;-74
2023/07/12 19:09:09;;;;;;;;;;;;;;;23.26;100.00;95398.59;10563122;27;2075;-75
2023/07/12 19:14:13;;;;;;;;;;;;;;;23.22;100.00;95364.03;10555405;27;1987;-74
2023/07/12 19:19:17;;;;;;;;;;;;;;;23.13;100.00;95351.34;10563404;27;2046;-75
2023/07/12 19:24:23;;;;;;;;;;;;;;;23.10;100.00;95384.19;10562112;27;1924;-74
2023/07/12 19:29:26;;;;;;;;;;;;;;;23.09;100.00;95399.81;10558816;27;1887;-73
2023/07/12 19:34:29;;;;;;;;;;;;;;;23.00;100.00;95426.69;10545077;28;1922;-72
2023/07/12 19:39:50;;;;;;;;;;;;;;;22.80;100.00;95457.94;10549820;27;4548;-70
2023/07/12 19:45:03;;;;;;;;;;;;;;;22.02;100.00;95509.75;10540391;27;2395;-71
2023/07/12 19:50:12;;;;;;;;;;;;;;;21.28;100.00;95555.00;10545920;28;2147;-72
2023/07/12 19:55:20;;;;;;;;;;;;;;;20.55;100.00;95618.78;10562859;28;1835;-72
2023/07/12 20:00:26;;;;;;;;;;;;;;;20.05;100.00;95635.41;10557848;27;1868;-72
2023/07/12 20:05:30;;;;;;;;;;;;;;;19.78;100.00;95648.47;10559522;28;1900;-71
2023/07/12 20:10:35;;;;;;;;;;;;;;;19.66;100.00;95654.69;10561228;28;1918;-73
2023/07/12 20:15:55;;;;;;;;;;;;;;;19.57;100.00;95664.84;10564934;27;1898;-82
2023/07/12 20:21:08;;;;;;;;;;;;;;;19.48;100.00;95679.69;10568348;27;1784;-82
2023/07/12 20:26:18;;;;;;;;;;;;;;;19.61;100.00;95663.06;10572411;27;1765;-83
2023/07/12 20:31:29;;;;;;;;;;;;;;;19.43;100.00;95621.50;10567551;28;1984;-90
2023/07/12 20:36:45;;;;;;;;;;;;;;;19.37;100.00;95587.41;10559662;28;1801;-86
2023/07/12 20:41:49;;;;;;;;;;;;;;;19.64;100.00;95593.44;10566230;28;2396;-83
2023/07/12 20:47:02;;;;;;;;;;;;;;;19.47;100.00;95601.72;10559818;28;2388;-81
2023/07/12 20:52:16;;;;;;;;;;;;;;;19.69;100.00;95623.22;10565169;28;1918;-69
2023/07/12 20:57:19;;;;;;;;;;;;;;;19.57;100.00;95625.88;10568342;28;1950;-70
2023/07/12 21:02:24;;;;;;;;;;;;;;;19.61;100.00;95649.44;10547597;28;1867;-69
2023/07/12 21:07:30;;;;;;;;;;;;;;;18.77;100.00;95640.41;10560380;28;1888;-70
2023/07/12 21:12:38;;;;;;;;;;;;;;;18.43;100.00;95656.84;10578213;27;1897;-69
2023/07/12 21:17:44;;;;;;;;;;;;;;;18.26;100.00;95650.34;10564092;28;1895;-87
2023/07/12 21:22:51;;;;;;;;;;;;;;;18.49;100.00;95674.59;10542418;28;1853;-67
2023/07/12 21:27:54;;;;;;;;;;;;;;;18.72;100.00;95669.72;10562282;28;1833;-68
2023/07/12 21:32:57;;;;;;;;;;;;;;;18.95;100.00;95670.22;10548536;27;1928;-68
2023/07/12 21:43:21;;;;;;;;;;;;;;;20.42;100.00;95641.69;10568026;27;4640;-70
2023/07/12 21:48:25;;;;;;;;;;;;;;;20.58;100.00;95634.47;10566692;27;2494;-68
2023/07/12 21:53:28;;;;;;;;;;;;;;;20.97;100.00;95684.88;10555841;27;2046;-69
2023/07/12 21:58:31;;;;;;;;;;;;;;;20.44;100.00;95692.09;10553383;28;1942;-69
2023/07/12 22:03:34;;;;;;;;;;;;;;;20.44;100.00;95686.66;10572735;27;1804;-69
2023/07/12 22:19:22;;;;;;;;;;;;;;;19.65;100.00;95644.09;10564991;27;1943;-77
2023/07/12 22:29:42;;;;;;;;;;;;;;;19.49;100.00;95662.19;10567923;27;1848;-79
2023/07/12 22:34:46;;;;;;;;;;;;;;;19.70;100.00;95682.06;10531805;28;2392;-78
2023/07/12 22:39:51;;;;;;;;;;;;;;;19.75;100.00;95681.88;10569711;27;1812;-78
2023/07/12 22:44:57;;;;;;;;;;;;;;;19.92;100.00;95678.22;10570546;27;2479;-77
2023/07/12 22:50:07;;;;;;;;;;;;;;;19.85;100.00;95689.66;10569062;27;1849;-76
2023/07/12 22:55:15;;;;;;;;;;;;;;;19.83;100.00;95696.56;10568903;27;1905;-79
2023/07/12 23:00:22;;;;;;;;;;;;;;;19.93;100.00;95707.88;10549672;27;1883;-77
2023/07/12 23:05:38;;;;;;;;;;;;;;;20.01;100.00;95721.78;10563757;28;1844;-76
2023/07/12 23:10:43;;;;;;;;;;;;;;;19.89;100.00;95722.50;10581622;27;1909;-75
2023/07/12 23:15:52;;;;;;;;;;;;;;;19.88;100.00;95704.56;10563332;27;1930;-76
2023/07/12 23:21:09;;;;;;;;;;;;;;;19.90;100.00;95686.72;10569303;27;1826;-76
2023/07/12 23:26:17;;;;;;;;;;;;;;;19.89;100.00;95671.47;10568271;27;1816;-76
2023/07/12 23:31:24;;;;;;;;;;;;;;;19.87;100.00;95657.38;10563532;28;2281;-76
2023/07/12 23:36:34;;;;;;;;;;;;;;;19.87;100.00;95634.78;10567121;28;1855;-77
2023/07/12 23:41:45;;;;;;;;;;;;;;;19.62;100.00;95644.78;10569687;27;1817;-76
2023/07/12 23:46:51;;;;;;;;;;;;;;;19.61;100.00;95663.06;10569538;27;2436;-78
2023/07/12 23:51:56;;;;;;;;;;;;;;;19.65;100.00;95668.63;10573997;27;1902;-77
2023/07/12 23:57:01;;;;;;;;;;;;;;;19.66;100.00;95673.78;10567479;28;1851;-75
